Time;durP1;ratioP1;P1;durP2;ratioP2;P2;SDS_P1;SDS_P2;PMS_P1;PMS_P2;Temp;Humidity;BMP_temperature;BMP_pressure;BME280_temperature;BME280_humidity;BME280_pressure;Samples;Min_cycle;Max_cycle;Signal;HPM_P1;HPM_P2
2021/09/24 00:00:28;;;;;;;9.95;3.05;;;;;;;15.20;88.10;101735.72;5055477;28;20353;-36
2021/09/24 00:02:53;;;;;;;7.53;2.33;;;;;;;15.23;88.20;101730.88;5055658;28;20082;-36
2021/09/24 00:05:19;;;;;;;8.00;2.38;;;;;;;15.22;87.90;101742.81;5055331;28;20025;-36
2021/09/24 00:07:45;;;;;;;6.68;2.72;;;;;;;15.20;88.33;101737.59;5056105;28;20515;-36
2021/09/24 00:10:10;;;;;;;;;;;;;;;15.31;87.36;101750.38;5055928;28;20025;-35
2021/09/24 00:12:37;;;;;;;8.75;3.22;;;;;;;15.13;87.57;101734.19;5055388;28;19912;-36
2021/09/24 00:15:03;;;;;;;7.40;2.42;;;;;;;15.19;88.24;101744.97;5055385;28;20120;-36
2021/09/24 00:17:28;;;;;;;8.40;2.60;;;;;;;15.20;87.63;101738.44;5055992;28;20033;-36
2021/09/24 00:19:54;;;;;;;6.47;2.60;;;;;;;15.13;87.42;101731.47;5054729;28;20017;-36
2021/09/24 00:22:20;;;;;;;7.07;2.65;;;;;;;15.12;87.29;101736.06;5055932;28;20021;-36
2021/09/24 00:24:45;;;;;;;6.45;2.40;;;;;;;15.14;88.04;101739.41;5055166;28;20450;-36
2021/09/24 00:27:11;;;;;;;5.28;2.50;;;;;;;15.09;87.58;101728.41;5055489;28;20116;-36
2021/09/24 00:29:37;;;;;;;5.25;2.40;;;;;;;15.07;87.85;101727.78;5055076;28;20021;-36
2021/09/24 00:32:03;;;;;;;5.75;2.45;;;;;;;15.09;88.27;101730.28;5055396;28;20093;-36
2021/09/24 00:34:28;;;;;;;6.70;2.60;;;;;;;15.11;88.48;101739.88;5054973;28;20085;-36
2021/09/24 00:36:53;;;;;;;7.15;2.83;;;;;;;15.11;88.22;101739.88;5055467;28;20111;-36
2021/09/24 00:39:19;;;;;;;8.53;3.20;;;;;;;15.03;87.82;101721.19;5053381;28;20104;-35
2021/09/24 00:41:44;;;;;;;8.10;3.40;;;;;;;15.10;87.92;101729.22;5055323;28;20341;-36
2021/09/24 00:44:09;;;;;;;8.90;3.13;;;;;;;14.99;88.60;101711.84;5054570;28;20412;-35
2021/09/24 00:46:35;;;;;;;7.83;3.10;;;;;;;15.06;88.61;101722.59;5054858;28;20031;-36
2021/09/24 00:49:00;;;;;;;;;;;;;;;15.15;87.53;101723.88;5055197;28;20052;-36
2021/09/24 00:51:25;;;;;;;8.20;3.80;;;;;;;15.01;88.89;101720.59;5054732;28;19904;-35
2021/09/24 00:53:51;;;;;;;7.27;4.07;;;;;;;15.00;89.64;101735.28;5054340;28;20325;-35
2021/09/24 00:56:17;;;;;;;11.95;4.70;;;;;;;14.97;89.50;101724.84;5055123;28;20258;-35
2021/09/24 00:58:42;;;;;;;11.50;5.85;;;;;;;15.00;89.66;101720.84;5054434;28;20437;-35
2021/09/24 01:01:08;;;;;;;10.77;5.63;;;;;;;14.97;89.99;101718.56;5054822;28;20032;-35
2021/09/24 01:03:35;;;;;;;10.60;5.47;;;;;;;15.02;89.92;101716.78;5054433;28;20103;-36
2021/09/24 01:06:01;;;;;;;12.07;6.25;;;;;;;15.02;90.30;101726.84;5055142;28;20028;-35
2021/09/24 01:08:26;;;;;;;14.35;6.70;;;;;;;15.02;90.08;101724.97;5054405;28;20449;-35
2021/09/24 01:10:51;;;;;;;16.30;7.68;;;;;;;15.00;90.75;101724.38;5054373;28;20024;-36
2021/09/24 01:13:17;;;;;;;14.63;7.73;;;;;;;15.02;90.87;101724.13;5054206;28;20028;-35
2021/09/24 01:15:42;;;;;;;8.70;7.13;;;;;;;14.98;90.27;101706.59;5054503;28;20251;-36
2021/09/24 01:18:08;;;;;;;13.98;8.27;;;;;;;15.06;90.73;101712.53;5053490;28;20299;-36
2021/09/24 01:20:33;;;;;;;15.25;8.65;;;;;;;14.98;91.50;101702.00;5054620;28;20032;-35
2021/09/24 01:22:59;;;;;;;16.95;8.98;;;;;;;14.94;91.40;101690.78;5054053;28;20472;-35
2021/09/24 01:25:24;;;;;;;16.85;9.48;;;;;;;14.96;91.85;101697.88;5054451;28;20056;-36
2021/09/24 01:27:51;;;;;;;17.52;9.70;;;;;;;15.03;91.73;101704.00;5054172;28;20123;-36
2021/09/24 01:30:17;;;;;;;15.13;10.18;;;;;;;15.03;92.24;101696.69;5054099;28;20025;-35
2021/09/24 01:32:44;;;;;;;17.48;12.18;;;;;;;15.02;92.13;101696.91;5053817;28;20052;-36
2021/09/24 01:35:10;;;;;;;19.08;11.70;;;;;;;15.00;92.23;101688.97;5053713;28;20028;-36
2021/09/24 01:37:35;;;;;;;18.10;13.40;;;;;;;14.99;92.18;101683.78;5054169;28;20025;-36
2021/09/24 01:40:03;;;;;;;26.70;15.15;;;;;;;14.96;92.49;101685.06;5053693;28;20016;-36
2021/09/24 01:42:29;;;;;;;23.85;15.40;;;;;;;15.02;93.02;101686.81;5054144;28;20025;-36
2021/09/24 01:44:54;;;;;;;24.47;16.60;;;;;;;15.08;92.96;101694.06;5053626;28;20362;-35
2021/09/24 01:47:19;;;;;;;;;;;;;;;15.14;91.35;101695.81;5054470;28;20048;-36
2021/09/24 01:49:45;;;;;;;26.80;15.60;;;;;;;15.02;93.08;101678.66;5054220;28;19927;-35
2021/09/24 01:52:10;;;;;;;28.50;18.52;;;;;;;15.09;94.14;101690.25;5053730;28;20028;-36
2021/09/24 01:54:36;;;;;;;28.70;19.38;;;;;;;15.12;94.17;101691.66;5053867;28;20104;-36
2021/09/24 01:57:02;;;;;;;30.85;19.63;;;;;;;15.06;93.96;101676.28;5053505;28;20104;-36
2021/09/24 01:59:27;;;;;;;29.80;19.50;;;;;;;15.04;94.49;101675.72;5053405;28;20396;-36
2021/09/24 02:01:52;;;;;;;34.33;19.95;;;;;;;15.04;94.96;101675.72;5052894;28;20051;-35
2021/09/24 02:04:18;;;;;;;31.98;21.17;;;;;;;15.14;94.84;101684.91;5053144;28;20079;-36
2021/09/24 02:06:44;;;;;;;35.53;21.25;;;;;;;15.17;94.86;101689.88;5053213;28;20029;-36
2021/09/24 02:09:10;;;;;;;31.33;19.27;;;;;;;15.10;94.69;101681.00;5053196;28;20099;-36
2021/09/24 02:11:35;;;;;;;;;;;;;;;15.23;92.97;101679.09;5054073;28;20089;-36
2021/09/24 02:14:01;;;;;;;32.20;20.85;;;;;;;15.03;94.04;101666.72;5053176;28;20292;-36
2021/09/24 02:16:27;;;;;;;40.90;21.77;;;;;;;15.11;94.70;101670.94;5053998;28;20028;-36
2021/09/24 02:18:53;;;;;;;36.38;20.70;;;;;;;15.11;94.31;101669.03;5053137;28;20116;-36
2021/09/24 02:21:18;;;;;;;34.05;20.75;;;;;;;15.18;94.55;101679.81;5052284;28;20031;-36
2021/09/24 02:23:44;;;;;;;33.03;21.27;;;;;;;15.22;94.42;101680.97;5052851;28;20457;-36
2021/09/24 02:26:09;;;;;;;33.72;19.77;;;;;;;15.22;94.44;101682.88;5052947;28;20035;-35
2021/09/24 02:28:35;;;;;;;33.78;19.75;;;;;;;15.20;94.86;101674.94;5052688;28;20024;-36
2021/09/24 02:31:01;;;;;;;31.10;20.20;;;;;;;15.14;94.78;101660.41;5053188;28;20025;-36
2021/09/24 02:33:26;;;;;;;31.60;17.65;;;;;;;15.22;94.63;101672.78;5052835;28;20021;-36
2021/09/24 02:35:52;;;;;;;29.13;18.73;;;;;;;15.18;95.13;101667.03;5053422;28;20104;-36
2021/09/24 02:38:17;;;;;;;27.50;19.63;;;;;;;15.10;95.08;101663.84;5052754;28;20472;-35
2021/09/24 02:40:42;;;;;;;33.17;19.60;;;;;;;15.14;95.24;101670.47;5053560;28;20025;-35
2021/09/24 02:43:08;;;;;;;37.73;21.13;;;;;;;15.15;95.24;101667.50;5052836;28;20351;-36
2021/09/24 02:45:33;;;;;;;35.17;21.17;;;;;;;15.17;95.41;101665.34;5053373;28;20707;-35
2021/09/24 02:47:58;;;;;;;37.17;21.77;;;;;;;15.16;95.40;101668.31;5052716;28;20616;-36
2021/09/24 02:50:24;;;;;;;40.33;23.38;;;;;;;15.17;95.53;101659.06;5052674;28;20731;-35
2021/09/24 02:52:49;;;;;;;44.03;23.33;;;;;;;15.17;95.71;101662.63;5052859;28;20025;-36
2021/09/24 02:55:15;;;;;;;39.38;24.55;;;;;;;15.14;96.07;101665.03;5052354;28;20109;-36
2021/09/24 02:57:41;;;;;;;40.20;23.33;;;;;;;15.16;95.85;101662.88;5052636;28;20108;-36
2021/09/24 03:00:07;;;;;;;;;;;;;;;15.19;94.66;101657.78;5053031;28;20036;-36
2021/09/24 03:02:32;;;;;;;45.97;25.20;;;;;;;15.16;95.80;101657.44;5053408;28;19912;-35
2021/09/24 03:04:58;;;;;;;;;;;;;;;15.22;94.03;101652.91;5053633;28;20079;-36
2021/09/24 03:07:23;;;;;;;51.80;27.80;;;;;;;15.16;95.58;101658.25;5051383;28;19909;-36
2021/09/24 03:09:48;;;;;;;55.75;29.90;;;;;;;15.10;96.94;101661.13;5052596;28;20021;-36
2021/09/24 03:12:14;;;;;;;63.72;30.27;;;;;;;15.12;96.50;101657.06;5053140;28;20064;-36
2021/09/24 03:14:39;;;;;;;62.35;32.42;;;;;;;15.13;96.77;101658.75;5052918;28;20056;-36
2021/09/24 03:17:05;;;;;;;65.93;33.38;;;;;;;15.09;97.00;101657.56;5052493;28;20497;-36
2021/09/24 03:19:30;;;;;;;66.85;34.97;;;;;;;15.12;97.18;101650.81;5052411;28;20025;-35
2021/09/24 03:21:55;;;;;;;;;;;;;;;15.18;96.07;101655.31;5053327;28;20021;-36
2021/09/24 03:24:21;;;;;;;75.43;37.60;;;;;;;15.12;96.85;101656.25;5052325;28;19909;-36
2021/09/24 03:26:46;;;;;;;74.10;38.00;;;;;;;15.10;97.50;101656.50;5052367;28;20259;-36
2021/09/24 03:29:12;;;;;;;70.10;39.47;;;;;;;15.09;97.97;101652.13;5052269;28;20036;-36
2021/09/24 03:31:38;;;;;;;73.45;40.55;;;;;;;15.10;98.25;101653.78;5053295;28;20079;-36
2021/09/24 03:34:04;;;;;;;81.18;42.10;;;;;;;15.04;98.55;101648.47;5056009;28;20116;-36
2021/09/24 03:36:29;;;;;;;73.75;39.53;;;;;;;15.04;98.47;101638.41;5055730;28;20358;-36
2021/09/24 03:38:55;;;;;;;72.27;41.47;;;;;;;15.11;98.48;101655.44;5054660;28;20017;-36
2021/09/24 03:41:20;;;;;;;86.43;44.25;;;;;;;15.10;98.44;101652.94;5055614;28;20263;-36
2021/09/24 03:43:45;;;;;;;83.33;43.53;;;;;;;14.91;99.02;101627.78;5056296;28;20025;-36
2021/09/24 03:46:11;;;;;;;83.32;43.95;;;;;;;15.02;99.07;101642.41;5056138;28;20738;-36
2021/09/24 03:48:36;;;;;;;83.03;44.93;;;;;;;15.10;99.43;101655.69;5056331;28;20132;-36
2021/09/24 03:51:02;;;;;;;80.70;44.63;;;;;;;15.08;99.16;101658.66;5056021;28;20256;-36
2021/09/24 03:53:27;;;;;;;78.05;44.67;;;;;;;15.08;99.33;101655.94;5055687;28;20025;-36
2021/09/24 03:55:53;;;;;;;77.07;44.08;;;;;;;15.09;99.65;101651.31;5056070;28;20451;-35
2021/09/24 03:58:19;;;;;;;;;;;;;;;15.15;98.32;101655.78;5056765;28;20017;-36
2021/09/24 04:00:45;;;;;;;77.95;42.65;;;;;;;15.07;98.89;101648.78;5055641;28;19923;-36
2021/09/24 04:03:10;;;;;;;74.50;44.05;;;;;;;15.03;99.61;101644.06;5055256;28;20047;-36
2021/09/24 04:05:35;;;;;;;82.57;44.83;;;;;;;15.08;100.00;101655.94;5054440;28;20037;-36
2021/09/24 04:08:01;;;;;;;83.20;43.63;;;;;;;14.98;99.77;101636.63;5055838;28;20256;-36
2021/09/24 04:10:26;;;;;;;77.13;45.63;;;;;;;15.05;99.84;101650.94;5055477;28;20332;-36
2021/09/24 04:12:51;;;;;;;77.43;45.63;;;;;;;15.08;100.00;101657.78;5055487;28;20315;-35
2021/09/24 04:15:17;;;;;;;;;;;;;;;15.13;99.66;101656.03;5055760;28;20048;-36
2021/09/24 04:17:42;;;;;;;67.88;41.58;;;;;;;15.09;100.00;101656.75;5055400;28;19920;-36
2021/09/24 04:20:08;;;;;;;75.53;43.13;;;;;;;15.01;99.88;101649.78;5055151;28;20028;-36
2021/09/24 04:22:33;;;;;;;71.32;41.92;;;;;;;15.09;100.00;101657.56;5055147;28;20032;-36
2021/09/24 04:24:59;;;;;;;67.03;43.10;;;;;;;15.06;100.00;101665.38;5054833;28;20055;-36
2021/09/24 04:27:24;;;;;;;70.93;40.97;;;;;;;15.09;100.00;101664.91;5055455;28;20403;-35
2021/09/24 04:29:50;;;;;;;68.90;41.78;;;;;;;15.09;100.00;101668.47;5054710;28;20470;-36
2021/09/24 04:32:15;;;;;;;68.65;39.58;;;;;;;15.08;100.00;101664.09;5055362;28;20028;-36
2021/09/24 04:34:40;;;;;;;;;;;;;;;15.13;99.49;101658.75;5055031;28;20410;-36
2021/09/24 04:37:06;;;;;;;56.13;35.93;;;;;;;15.04;99.74;101652.03;5070154;28;19905;-36
2021/09/24 04:39:31;;;;;;;65.53;37.80;;;;;;;15.07;100.00;101654.25;5054833;28;20295;-36
2021/09/24 04:41:56;;;;;;;61.38;38.58;;;;;;;15.11;99.52;101671.78;5055276;28;20640;-36
2021/09/24 04:44:22;;;;;;;66.35;40.17;;;;;;;15.09;100.00;101663.03;5054071;28;20037;-35
2021/09/24 04:46:48;;;;;;;65.27;40.77;;;;;;;15.01;100.00;101654.41;5054497;28;20095;-36
2021/09/24 04:49:13;;;;;;;;;;;;;;;15.14;99.83;101660.41;5055509;28;20268;-36
2021/09/24 04:51:39;;;;;;;70.63;44.08;;;;;;;15.11;100.00;101649.97;5054560;28;20255;-36
2021/09/24 04:54:04;;;;;;;81.88;45.53;;;;;;;15.06;100.00;101658.03;5054043;28;20039;-36
2021/09/24 04:56:29;;;;;;;85.07;46.03;;;;;;;14.99;100.00;101649.19;5054690;28;20068;-36
2021/09/24 04:58:55;;;;;;;87.25;47.92;;;;;;;15.04;100.00;101662.91;5053991;28;20126;-35
2021/09/24 05:01:20;;;;;;;89.77;47.63;;;;;;;14.94;100.00;101649.09;5054435;28;20055;-35
2021/09/24 05:03:45;;;;;;;92.87;49.53;;;;;;;14.94;100.00;101649.09;5054367;28;20263;-35
2021/09/24 05:06:11;;;;;;;96.25;48.90;;;;;;;15.01;100.00;101668.84;5054658;28;20247;-35
2021/09/24 05:08:36;;;;;;;94.30;48.22;;;;;;;15.02;100.00;101669.66;5054335;28;20029;-36
2021/09/24 05:11:01;;;;;;;;;;;;;;;15.08;100.00;101675.00;5054840;28;20434;-36
2021/09/24 05:13:27;;;;;;;86.63;45.03;;;;;;;14.96;100.00;101662.47;5054075;28;19913;-36
2021/09/24 05:15:52;;;;;;;88.55;46.08;;;;;;;15.03;100.00;101668.59;5054497;28;20252;-36
2021/09/24 05:18:17;;;;;;;90.65;45.65;;;;;;;15.03;100.00;101672.16;5053715;28;20069;-36
2021/09/24 05:20:43;;;;;;;96.73;47.17;;;;;;;14.97;100.00;101662.22;5054523;28;20114;-36
2021/09/24 05:23:08;;;;;;;92.45;46.22;;;;;;;15.02;100.00;101675.09;5052463;28;20360;-36
2021/09/24 05:25:33;;;;;;;94.63;45.63;;;;;;;14.97;100.00;101669.56;5053631;28;20047;-36
2021/09/24 05:27:59;;;;;;;103.40;48.17;;;;;;;15.01;100.00;101676.19;5053855;28;20260;-36
2021/09/24 05:30:24;;;;;;;;;;;;;;;15.07;100.00;101677.94;5054258;28;20025;-35
2021/09/24 05:32:49;;;;;;;97.10;44.10;;;;;;;15.00;100.00;101686.25;5053917;28;19905;-36
2021/09/24 05:35:15;;;;;;;92.93;45.97;;;;;;;15.01;100.00;101687.06;5052380;28;20270;-36
2021/09/24 05:37:41;;;;;;;;;;;;;;;15.03;100.00;101685.78;5054139;28;20029;-36
2021/09/24 05:40:07;;;;;;;106.32;48.72;;;;;;;14.97;100.00;101678.56;5053697;28;19909;-36
2021/09/24 05:42:32;;;;;;;;;;;;;;;15.03;100.00;101674.88;5053883;28;20033;-36
2021/09/24 05:44:57;;;;;;;99.20;46.70;;;;;;;14.94;100.00;101668.16;5053379;28;19916;-36
2021/09/24 05:47:23;;;;;;;106.57;47.20;;;;;;;14.99;100.00;101676.44;5054534;28;20267;-36
2021/09/24 05:49:48;;;;;;;100.15;45.78;;;;;;;14.99;100.00;101678.34;5053227;28;20025;-36
2021/09/24 05:52:14;;;;;;;102.70;47.22;;;;;;;14.99;100.00;101670.16;5053156;28;20029;-36
2021/09/24 05:54:39;;;;;;;109.78;47.28;;;;;;;14.96;100.00;101668.72;5052560;28;20087;-36
2021/09/24 05:57:04;;;;;;;101.27;46.03;;;;;;;14.88;100.00;101656.34;5053305;28;20047;-36
2021/09/24 05:59:30;;;;;;;101.25;45.42;;;;;;;14.94;100.00;101665.44;5051969;28;20366;-36
2021/09/24 06:01:55;;;;;;;106.15;46.03;;;;;;;14.94;100.00;101676.31;5053868;28;20052;-36
2021/09/24 06:04:21;;;;;;;105.47;46.10;;;;;;;14.91;100.00;101669.44;5052864;28;20461;-36
2021/09/24 06:06:47;;;;;;;97.50;42.08;;;;;;;14.87;100.00;101664.72;5052516;28;20032;-36
2021/09/24 06:09:12;;;;;;;;;;;;;;;14.94;100.00;101666.25;5053442;28;20025;-34
2021/09/24 06:11:38;;;;;;;87.50;40.53;;;;;;;14.91;100.00;101663.19;5053555;28;20041;-34
2021/09/24 06:14:04;;;;;;;85.27;40.13;;;;;;;14.93;100.00;101670.06;5052954;28;20417;-34
2021/09/24 06:16:30;;;;;;;85.60;40.22;;;;;;;14.94;100.00;101658.09;5053216;28;20271;-34
2021/09/24 06:18:55;;;;;;;88.22;39.65;;;;;;;14.93;100.00;101661.03;5053585;28;20102;-34
2021/09/24 06:21:23;;;;;;;88.47;38.85;;;;;;;14.87;100.00;101645.66;5053352;28;20025;-34
2021/09/24 06:23:48;;;;;;;87.30;40.15;;;;;;;14.87;100.00;101654.66;5053024;28;20014;-34
2021/09/24 06:26:14;;;;;;;87.25;39.42;;;;;;;14.93;100.00;101659.16;5053004;28;20070;-34
2021/09/24 06:28:39;;;;;;;88.05;40.50;;;;;;;14.92;100.00;101653.94;5053010;28;20035;-34
2021/09/24 06:31:05;;;;;;;94.97;39.95;;;;;;;14.94;100.00;101659.97;5053283;28;20098;-34
2021/09/24 06:33:32;;;;;;;89.90;39.97;;;;;;;14.79;100.00;101627.81;5053077;28;20029;-34
2021/09/24 06:35:57;;;;;;;82.45;36.08;;;;;;;14.84;100.00;101633.38;5052975;28;20048;-34
2021/09/24 06:38:23;;;;;;;76.85;35.65;;;;;;;14.99;100.00;101656.53;5051442;28;20426;-35
2021/09/24 06:40:49;;;;;;;81.32;38.70;;;;;;;15.00;100.00;101655.47;5053493;28;20078;-36
2021/09/24 06:43:15;;;;;;;76.22;36.35;;;;;;;15.02;100.00;101658.75;5051637;28;20132;-36
2021/09/24 06:45:41;;;;;;;80.82;36.05;;;;;;;15.03;100.00;101660.41;5053400;28;20052;-36
2021/09/24 06:48:06;;;;;;;84.00;38.15;;;;;;;14.98;100.00;101649.41;5053311;28;20053;-36
2021/09/24 06:50:32;;;;;;;;;;;;;;;15.11;100.00;101666.31;5053431;28;20051;-36
2021/09/24 06:52:57;;;;;;;72.22;36.88;;;;;;;15.10;100.00;101667.41;5052477;28;20261;-36
2021/09/24 06:55:25;;;;;;;88.18;39.20;;;;;;;15.10;100.00;101661.94;5053022;28;20060;-36
2021/09/24 06:57:52;;;;;;;70.78;37.45;;;;;;;15.10;100.00;101661.13;5052640;28;20461;-35
2021/09/24 07:00:17;;;;;;;78.15;39.78;;;;;;;15.13;100.00;101661.47;5052443;28;20025;-36
2021/09/24 07:02:42;;;;;;;69.13;37.33;;;;;;;15.19;100.00;101659.69;5053046;28;20055;-36
2021/09/24 07:05:08;;;;;;;74.60;37.58;;;;;;;15.13;100.00;101647.84;5052698;28;20459;-36
2021/09/24 07:07:33;;;;;;;74.18;37.63;;;;;;;15.24;100.00;101659.78;5056055;28;20501;-36
2021/09/24 07:09:58;;;;;;;74.97;37.40;;;;;;;15.27;100.00;101658.44;5056842;28;20025;-36
2021/09/24 07:12:25;;;;;;;72.88;38.40;;;;;;;15.31;100.00;101660.44;5056808;28;20365;-36
2021/09/24 07:14:50;;;;;;;75.35;38.42;;;;;;;15.34;100.00;101659.16;5057102;28;20361;-36
2021/09/24 07:17:15;;;;;;;78.13;39.17;;;;;;;15.37;100.00;101666.81;5056239;28;20041;-36
2021/09/24 07:19:41;;;;;;;71.03;38.70;;;;;;;15.42;100.00;101667.78;5056876;28;20757;-36
2021/09/24 07:22:07;;;;;;;;;;;;;;;15.50;100.00;101663.81;5057339;28;20619;-36
2021/09/24 07:24:32;;;;;;;72.68;37.58;;;;;;;15.50;100.00;101671.16;5056613;28;19999;-36
2021/09/24 07:26:57;;;;;;;;;;;;;;;15.56;100.00;101667.47;5057084;28;20223;-35
2021/09/24 07:29:23;;;;;;;67.65;38.45;;;;;;;15.53;100.00;101663.34;5056713;28;19940;-36
2021/09/24 07:31:48;;;;;;;66.00;38.53;;;;;;;15.53;100.00;101655.16;5056741;28;20349;-35
2021/09/24 07:34:13;;;;;;;75.25;39.22;;;;;;;15.63;100.00;101659.97;5054957;28;20419;-35
2021/09/24 07:36:39;;;;;;;71.28;38.53;;;;;;;15.61;100.00;101648.47;5056679;28;20393;-36
2021/09/24 07:39:05;;;;;;;69.93;38.63;;;;;;;15.66;100.00;101660.34;5055999;28;20017;-36
2021/09/24 07:41:31;;;;;;;75.63;39.53;;;;;;;15.69;100.00;101662.56;5056790;28;20025;-36
2021/09/24 07:43:57;;;;;;;64.80;37.83;;;;;;;15.58;100.00;101635.34;5056475;28;20036;-35
2021/09/24 07:46:23;;;;;;;62.85;37.15;;;;;;;15.79;99.94;101661.09;5055738;28;20036;-36
2021/09/24 07:48:49;;;;;;;61.45;39.00;;;;;;;15.81;99.75;101658.94;5055833;28;20025;-36
2021/09/24 07:51:15;;;;;;;;;;;;;;;15.91;99.84;101668.16;5056365;28;20083;-35
2021/09/24 07:53:41;;;;;;;59.28;33.38;;;;;;;15.92;99.72;101663.53;5056118;28;19958;-36
2021/09/24 07:56:07;;;;;;;;;;;;;;;16.03;99.07;101664.50;5056456;28;20025;-35
2021/09/24 07:58:33;;;;;;;59.15;34.83;;;;;;;16.01;98.69;101662.03;5055883;28;19909;-36
2021/09/24 08:00:58;;;;;;;56.25;34.45;;;;;;;16.04;98.57;101664.25;5056411;28;20059;-36
2021/09/24 08:03:24;;;;;;;54.90;34.35;;;;;;;15.98;97.73;101653.53;5055288;28;20021;-36
2021/09/24 08:05:49;;;;;;;;;;;;;;;16.17;97.98;101671.28;5056262;28;20040;-35
2021/09/24 08:08:15;;;;;;;54.42;34.60;;;;;;;16.18;97.48;101670.22;5055785;28;19904;-36
2021/09/24 08:10:40;;;;;;;;;;;;;;;16.26;97.79;101675.28;5055626;28;20025;-36
2021/09/24 08:13:05;;;;;;;53.42;33.17;;;;;;;16.25;96.85;101672.78;5055788;28;20375;-36
2021/09/24 08:15:32;;;;;;;51.20;33.67;;;;;;;16.30;96.32;101681.03;5055747;28;20017;-36
2021/09/24 08:17:58;;;;;;;51.85;33.75;;;;;;;16.33;96.69;101677.81;5054580;28;20041;-36
2021/09/24 08:20:23;;;;;;;55.65;35.47;;;;;;;16.29;95.82;101674.75;5056070;28;20128;-36
2021/09/24 08:22:48;;;;;;;;;;;;;;;16.47;95.79;101684.59;5056005;28;20373;-36
2021/09/24 08:25:17;;;;;;;50.97;34.08;;;;;;;16.44;95.44;101683.16;5055241;28;19904;-36
2021/09/24 08:27:43;;;;;;;48.03;32.95;;;;;;;16.50;94.51;101689.56;5055250;28;20025;-36
2021/09/24 08:30:12;;;;;;;45.97;32.40;;;;;;;16.53;93.96;101690.94;5054809;28;20441;-35
2021/09/24 08:32:38;;;;;;;48.90;32.97;;;;;;;16.55;93.74;101686.91;5055260;28;20043;-35
2021/09/24 08:35:04;;;;;;;;;;;;;;;16.65;94.46;101686.22;5055046;28;20457;-36
2021/09/24 08:37:29;;;;;;;46.70;33.25;;;;;;;16.63;94.08;101683.72;5055238;28;19904;-36
2021/09/24 08:39:54;;;;;;;;;;;;;;;16.75;94.22;101688.31;5055048;28;20017;-36
2021/09/24 08:42:20;;;;;;;47.80;33.27;;;;;;;16.71;93.44;101683.34;5054930;28;19999;-36
2021/09/24 08:44:47;;;;;;;;;;;;;;;16.83;93.69;101685.94;5055270;28;20021;-36
2021/09/24 08:47:12;;;;;;;45.30;29.80;;;;;;;16.77;92.17;101675.22;5054891;28;19904;-36
2021/09/24 08:49:38;;;;;;;;;;;;;;;16.92;92.55;101681.72;5055164;28;20394;-36
2021/09/24 08:52:03;;;;;;;43.67;29.02;;;;;;;16.94;92.65;101689.66;5054960;28;19916;-36
2021/09/24 08:54:29;;;;;;;;;;;;;;;17.05;92.96;101688.72;5055041;28;20492;-36
2021/09/24 08:56:54;;;;;;;41.07;29.07;;;;;;;17.11;92.38;101684.13;5054296;28;19904;-36
2021/09/24 08:59:19;;;;;;;40.50;30.95;;;;;;;17.19;91.12;101679.06;5054253;28;20283;-35
2021/09/24 09:02:03;;;;;;;43.22;31.45;;;;;;;17.25;91.80;101677.22;5054587;28;20476;-36
2021/09/24 09:04:47;;;;;;;42.45;28.95;;;;;;;17.33;91.18;101682.22;5054516;28;20017;-36
2021/09/24 09:07:14;;;;;;;36.75;28.90;;;;;;;17.38;91.09;101685.03;5054919;28;20040;-36
2021/09/24 09:09:50;;;;;;;39.03;29.70;;;;;;;17.44;89.97;101694.09;5054285;28;20029;-36
2021/09/24 09:12:17;;;;;;;37.35;29.25;;;;;;;17.37;89.55;101680.66;5054781;28;20040;-36
2021/09/24 09:14:55;;;;;;;36.20;29.02;;;;;;;17.41;88.17;101689.13;5054138;28;20047;-36
2021/09/24 09:17:34;;;;;;;33.67;28.17;;;;;;;17.39;89.33;101694.06;5054461;28;20045;-36
2021/09/24 09:20:15;;;;;;;34.83;27.10;;;;;;;17.36;89.12;101681.69;5054604;28;20091;-36
2021/09/24 09:22:43;;;;;;;37.75;28.73;;;;;;;17.35;88.90;101691.00;5054858;28;20104;-36
2021/09/24 09:25:21;;;;;;;36.55;28.52;;;;;;;17.17;88.88;101656.59;5053729;28;20032;-36
2021/09/24 09:27:47;;;;;;;35.80;27.42;;;;;;;17.33;88.87;101684.16;5053693;28;20029;-36
2021/09/24 09:30:15;;;;;;;36.85;26.35;;;;;;;17.33;88.85;101678.69;5054190;28;20079;-36
2021/09/24 09:32:42;;;;;;;31.27;25.98;;;;;;;17.25;88.16;101669.81;5052570;28;20020;-36
2021/09/24 09:35:09;;;;;;;33.35;25.55;;;;;;;17.27;87.98;101668.75;5053903;28;20155;-36
2021/09/24 09:37:35;;;;;;;36.15;26.45;;;;;;;17.35;88.09;101679.22;5054022;28;20021;-36
2021/09/24 09:40:08;;;;;;;31.73;25.95;;;;;;;17.41;89.09;101681.75;5053961;28;20104;-36
2021/09/24 09:42:41;;;;;;;30.98;25.60;;;;;;;17.46;89.02;101681.00;5053626;28;20025;-36
2021/09/24 09:45:09;;;;;;;32.35;24.70;;;;;;;17.46;87.74;101683.72;5053950;28;20519;-36
2021/09/24 09:47:37;;;;;;;33.70;25.90;;;;;;;17.36;87.41;101664.47;5054025;28;20066;-36
2021/09/24 09:50:05;;;;;;;30.30;24.33;;;;;;;17.34;87.12;101658.44;5053242;28;20032;-36
2021/09/24 09:52:33;;;;;;;30.30;23.23;;;;;;;17.46;87.05;101673.59;5054274;28;20029;-36
2021/09/24 09:55:05;;;;;;;30.58;24.00;;;;;;;17.34;86.44;101661.19;5053433;28;20055;-36
2021/09/24 09:57:33;;;;;;;32.42;24.17;;;;;;;17.46;86.34;101675.53;5053681;28;20021;-36
2021/09/24 09:59:59;;;;;;;30.02;23.23;;;;;;;17.45;86.48;101669.22;5053618;28;20098;-36
2021/09/24 10:02:31;;;;;;;;;;;;;;;17.55;87.62;101671.25;5053874;28;20067;-36
2021/09/24 10:04:58;;;;;;;28.98;22.83;;;;;;;17.49;86.32;101667.63;5053649;28;20333;-36
2021/09/24 10:07:26;;;;;;;32.50;24.05;;;;;;;17.57;85.84;101676.44;5053328;28;20029;-36
2021/09/24 10:10:12;;;;;;;31.92;23.30;;;;;;;17.54;86.05;101666.88;5053227;28;20025;-36
2021/09/24 10:12:39;;;;;;;27.00;22.27;;;;;;;17.60;85.99;101673.22;5053473;28;20122;-34
2021/09/24 10:15:07;;;;;;;30.13;23.40;;;;;;;17.59;85.66;101672.41;5053103;28;20025;-34
2021/09/24 10:17:33;;;;;;;29.17;23.45;;;;;;;17.61;85.04;101672.13;5053823;28;20053;-35
2021/09/24 10:19:59;;;;;;;26.35;23.42;;;;;;;17.58;85.48;101654.34;5053127;28;20025;-35
2021/09/24 10:22:25;;;;;;;;;;;;;;;17.80;86.06;101669.88;5053825;28;20028;-35
2021/09/24 10:24:51;;;;;;;28.27;23.30;;;;;;;17.72;85.05;101662.97;5052699;28;19904;-35
2021/09/24 10:27:27;;;;;;;26.95;22.65;;;;;;;17.84;85.59;101668.28;5052825;28;20104;-35
2021/09/24 10:29:56;;;;;;;29.88;22.55;;;;;;;17.86;84.74;101655.16;5053980;28;20406;-35
2021/09/24 10:32:27;;;;;;;23.85;20.90;;;;;;;17.94;84.15;101658.25;5053229;28;20127;-35
2021/09/24 10:35:11;;;;;;;25.27;21.77;;;;;;;17.89;84.00;101640.97;5053073;28;20025;-35
2021/09/24 10:37:45;;;;;;;22.67;20.27;;;;;;;17.96;84.03;101636.94;5052814;28;20487;-35
2021/09/24 10:40:19;;;;;;;26.05;21.00;;;;;;;18.05;83.57;101650.94;5053158;28;20025;-35
2021/09/24 10:42:47;;;;;;;23.65;21.10;;;;;;;18.08;82.80;101653.16;5052674;28;20099;-35
2021/09/24 10:45:15;;;;;;;31.17;22.75;;;;;;;18.05;82.42;101653.69;5052688;28;20048;-35
2021/09/24 10:47:43;;;;;;;23.65;21.15;;;;;;;18.07;81.96;101654.28;5053177;28;20088;-35
2021/09/24 10:53:11;;;;;;;21.45;19.30;;;;;;;18.16;82.97;101658.19;5052732;28;20106;-35
2021/09/24 10:56:01;;;;;;;24.88;20.20;;;;;;;18.16;81.95;101644.50;5053364;28;20031;-35
2021/09/24 10:58:27;;;;;;;22.98;20.00;;;;;;;18.17;81.50;101646.13;5010676;28;20029;-35
2021/09/24 11:00:56;;;;;;;;;;;;;;;18.32;82.63;101648.16;5011199;28;20048;-35
2021/09/24 11:03:24;;;;;;;23.38;20.05;;;;;;;18.28;82.23;101634.16;5010817;28;19905;-35
2021/09/24 11:05:56;;;;;;;24.38;21.67;;;;;;;18.36;81.26;101637.50;5010508;28;20037;-35
2021/09/24 11:08:33;;;;;;;24.65;22.02;;;;;;;18.45;81.62;101620.31;5011129;28;20046;-35
2021/09/24 11:11:03;;;;;;;26.23;22.95;;;;;;;18.59;80.28;101623.38;5010737;28;20018;-35
2021/09/24 11:13:29;;;;;;;24.35;21.70;;;;;;;18.68;79.66;101621.81;5010803;28;20032;-36
2021/09/24 11:16:01;;;;;;;;;;;;;;;18.81;80.33;101625.19;5010976;28;20176;-35